Time;durP1;ratioP1;P1;durP2;ratioP2;P2;SDS_P1;SDS_P2;PMS_P1;PMS_P2;Temp;Humidity;BMP_temperature;BMP_pressure;BME280_temperature;BME280_humidity;BME280_pressure;Samples;Min_cycle;Max_cycle;Signal;HPM_P1;HPM_P2
2023/04/18 00:00:34;;;;;;;31.60;26.15;;;;;;;6.44;nan;102703.47;4976810;28;20086;-39
2023/04/18 00:02:59;;;;;;;37.88;28.33;;;;;;;6.30;nan;102664.06;4960743;28;20034;-41
2023/04/18 00:05:25;;;;;;;37.22;27.88;;;;;;;6.42;nan;102685.13;4978879;28;20031;-42
2023/04/18 00:07:51;;;;;;;37.85;28.27;;;;;;;6.40;nan;102681.59;4944611;28;20076;-40
2023/04/18 00:10:17;;;;;;;36.70;28.33;;;;;;;6.38;nan;102691.19;4973065;28;20035;-41
2023/04/18 00:12:42;;;;;;;38.33;27.05;;;;;;;6.01;nan;102627.00;4970630;28;20050;-41
2023/04/18 00:15:08;;;;;;;34.50;28.52;;;;;;;5.36;nan;102518.88;4976463;28;20035;-42
2023/04/18 00:17:37;;;;;;;40.70;26.88;;;;;;;6.24;nan;102697.94;4961241;28;20034;-41
2023/04/18 00:20:03;;;;;;;37.97;28.92;;;;;;;6.28;nan;102688.38;4969024;28;20050;-41
2023/04/18 00:22:28;;;;;;;37.70;28.20;;;;;;;6.12;nan;102658.53;4998496;28;20041;-41
2023/04/18 00:24:54;;;;;;;38.40;27.90;;;;;;;6.23;nan;102690.97;5010516;28;20120;-41
2023/04/18 00:27:20;;;;;;;34.60;26.80;;;;;;;6.23;nan;102691.84;4994126;28;20045;-40
2023/04/18 00:29:46;;;;;;;37.22;26.98;;;;;;;6.15;nan;102675.16;4990931;28;20031;-40
2023/04/18 00:32:11;;;;;;;41.88;28.65;;;;;;;6.16;nan;102681.25;4987729;28;20070;-41
2023/04/18 00:34:36;;;;;;;37.97;28.25;;;;;;;6.14;nan;102691.69;4985174;28;20470;-41
2023/04/18 00:37:02;;;;;;;39.88;29.38;;;;;;;6.01;nan;102667.97;4994626;28;20078;-44
2023/04/18 00:39:27;;;;;;;35.40;28.63;;;;;;;5.73;nan;102611.72;4992537;28;20034;-42
2023/04/18 00:41:52;;;;;;;37.05;28.55;;;;;;;6.09;nan;102674.19;4994215;28;20084;-42
2023/04/18 00:44:18;;;;;;;38.17;27.73;;;;;;;6.12;nan;102684.69;4993388;28;20035;-40
2023/04/18 00:46:43;;;;;;;37.22;26.38;;;;;;;5.73;nan;102609.13;4994195;28;20042;-41
2023/04/18 00:49:09;;;;;;;36.63;27.83;;;;;;;6.17;nan;102677.78;4991855;28;20474;-41
2023/04/18 00:51:34;;;;;;;37.22;26.50;;;;;;;6.06;nan;102661.06;4993716;28;20038;-41
2023/04/18 00:54:01;;;;;;;31.75;26.48;;;;;;;6.05;nan;102659.28;4991698;28;20034;-41
2023/04/18 00:56:28;;;;;;;31.13;24.52;;;;;;;5.88;nan;102632.91;4974276;28;20450;-40
2023/04/18 00:58:53;;;;;;;27.13;24.05;;;;;;;5.76;nan;102616.13;4983670;28;20046;-40
2023/04/18 01:01:19;;;;;;;33.70;23.92;;;;;;;6.13;nan;102674.25;5009974;28;20394;-41
2023/04/18 01:03:44;;;;;;;30.98;22.85;;;;;;;6.00;nan;102645.28;4994864;28;20466;-41
2023/04/18 01:06:09;;;;;;;30.40;23.48;;;;;;;6.14;nan;102669.91;4994801;28;20062;-43
2023/04/18 01:08:35;;;;;;;28.77;21.92;;;;;;;6.09;nan;102662.00;4993235;28;20035;-43
2023/04/18 01:11:00;;;;;;;24.75;20.45;;;;;;;5.02;nan;102470.47;5005892;28;20122;-40
2023/04/18 01:13:26;;;;;;;25.98;20.25;;;;;;;6.13;nan;102674.25;4992355;28;20393;-41
2023/04/18 01:15:53;;;;;;;25.00;19.83;;;;;;;5.87;nan;102617.19;4993491;28;20073;-41
2023/04/18 01:18:19;;;;;;;22.67;18.92;;;;;;;6.19;nan;102673.44;4993430;28;20040;-42
2023/04/18 01:20:49;;;;;;;24.85;17.73;;;;;;;6.17;nan;102665.59;4992542;28;20129;-40
2023/04/18 01:23:16;;;;;;;24.73;16.67;;;;;;;5.72;nan;102596.06;4992734;28;20042;-41
2023/04/18 01:25:42;;;;;;;20.95;16.40;;;;;;;5.76;nan;102603.94;4975667;28;20030;-41
2023/04/18 01:28:09;;;;;;;18.35;14.65;;;;;;;6.07;nan;102665.44;4993313;28;20505;-42
2023/04/18 01:30:34;;;;;;;17.15;13.85;;;;;;;6.12;nan;102674.22;4974621;28;20485;-41
2023/04/18 01:33:01;;;;;;;15.75;13.70;;;;;;;6.15;nan;102674.28;4992860;28;20076;-41
2023/04/18 01:35:26;;;;;;;17.17;13.35;;;;;;;6.06;nan;102661.06;4976721;28;20038;-41
2023/04/18 01:37:51;;;;;;;16.88;12.88;;;;;;;6.17;nan;102689.13;4992274;28;20034;-41
2023/04/18 01:40:17;;;;;;;15.57;12.90;;;;;;;6.17;nan;102677.78;4993497;28;20601;-41
2023/04/18 01:42:42;;;;;;;14.73;11.60;;;;;;;6.12;nan;102682.06;4980881;28;20565;-41
2023/04/18 01:45:08;;;;;;;15.10;12.60;;;;;;;5.71;nan;102620.41;4992682;28;20482;-41
2023/04/18 01:47:33;;;;;;;15.57;12.02;;;;;;;6.04;nan;102678.47;4969472;28;20374;-41
2023/04/18 01:49:58;;;;;;;14.48;10.68;;;;;;;5.95;nan;102671.38;4992164;28;20126;-40
2023/04/18 01:52:24;;;;;;;14.13;11.13;;;;;;;5.59;nan;102616.75;4992408;28;20038;-42
2023/04/18 01:54:49;;;;;;;12.35;11.15;;;;;;;5.96;nan;102680.06;4975881;28;20050;-41
2023/04/18 01:57:15;;;;;;;14.15;10.77;;;;;;;5.92;nan;102689.63;4992083;28;20104;-42
2023/04/18 01:59:40;;;;;;;13.90;10.52;;;;;;;5.49;nan;102620.06;4992685;28;20046;-41
2023/04/18 02:02:05;;;;;;;12.93;10.32;;;;;;;5.83;nan;102686.81;4993352;28;20474;-41
2023/04/18 02:04:30;;;;;;;12.55;10.30;;;;;;;5.40;nan;102625.13;4992014;28;20050;-42
2023/04/18 02:06:56;;;;;;;11.68;9.57;;;;;;;5.70;nan;102692.69;4976244;28;20042;-41
2023/04/18 02:09:21;;;;;;;11.73;10.27;;;;;;;5.20;nan;102609.97;4991506;28;20467;-41
2023/04/18 02:11:46;;;;;;;12.13;10.27;;;;;;;5.58;nan;102682.91;4991318;28;20129;-39
2023/04/18 02:14:12;;;;;;;14.05;9.18;;;;;;;5.28;nan;102640.59;4991149;28;20132;-39
2023/04/18 02:16:37;;;;;;;12.13;9.70;;;;;;;5.51;nan;102694.13;4990986;28;22987;-40
2023/04/18 02:19:03;;;;;;;11.80;9.63;;;;;;;5.36;nan;102665.09;4992503;28;20048;-40
2023/04/18 02:21:29;;;;;;;11.70;8.95;;;;;;;5.38;nan;102675.56;4991477;28;20055;-41
2023/04/18 02:23:54;;;;;;;11.35;9.07;;;;;;;5.46;nan;102697.47;4991971;28;20486;-41
2023/04/18 02:26:19;;;;;;;11.13;9.52;;;;;;;5.07;nan;102616.72;4974481;28;20470;-41
2023/04/18 02:28:45;;;;;;;10.98;9.13;;;;;;;5.41;nan;102684.34;4987812;28;20046;-42
2023/04/18 02:31:13;;;;;;;12.95;8.68;;;;;;;5.36;nan;102672.94;4974140;28;20042;-42
2023/04/18 02:33:42;;;;;;;10.65;8.88;;;;;;;5.41;nan;102694.78;4992221;28;20041;-40
2023/04/18 02:36:08;;;;;;;12.48;8.95;;;;;;;5.02;nan;102620.97;4993244;28;20034;-41
2023/04/18 02:38:33;;;;;;;11.02;8.73;;;;;;;4.19;nan;102495.03;4974364;28;20034;-41
2023/04/18 02:40:59;;;;;;;10.13;8.40;;;;;;;5.33;nan;102693.78;4991906;28;20050;-41
2023/04/18 02:43:24;;;;;;;12.32;9.15;;;;;;;5.24;nan;102669.22;4992771;28;20383;-40
2023/04/18 02:45:49;;;;;;;11.43;9.35;;;;;;;4.88;nan;102622.41;4991834;28;20034;-40
2023/04/18 02:48:15;;;;;;;9.85;8.50;;;;;;;5.19;nan;102687.41;4992522;28;20039;-40
2023/04/18 02:50:40;;;;;;;11.07;9.75;;;;;;;5.14;nan;102686.44;4992095;28;20478;-42
2023/04/18 02:53:06;;;;;;;10.13;9.07;;;;;;;4.77;nan;102631.78;4992807;28;20500;-40
2023/04/18 02:55:31;;;;;;;12.68;8.90;;;;;;;5.02;nan;102686.22;4992524;28;20090;-41
2023/04/18 02:57:57;;;;;;;11.88;9.30;;;;;;;5.05;nan;102683.63;4975520;28;20038;-42
2023/04/18 03:00:22;;;;;;;12.10;9.32;;;;;;;5.02;nan;102679.25;4991745;28;20073;-41
2023/04/18 03:02:48;;;;;;;11.15;9.18;;;;;;;4.99;nan;102686.16;4991275;28;20039;-41
2023/04/18 03:05:13;;;;;;;11.13;9.52;;;;;;;4.79;nan;102662.25;4974597;28;20070;-41
2023/04/18 03:07:39;;;;;;;9.98;8.80;;;;;;;4.94;nan;102693.88;4975228;28;20117;-41
2023/04/18 03:10:05;;;;;;;11.82;9.13;;;;;;;4.50;nan;102627.75;4975470;28;20072;-42
2023/04/18 03:12:30;;;;;;;10.07;9.05;;;;;;;4.93;nan;102701.69;4991955;28;20061;-40
2023/04/18 03:14:55;;;;;;;13.23;9.45;;;;;;;4.28;nan;102594.28;4991713;28;20125;-42
2023/04/18 03:17:21;;;;;;;10.88;9.32;;;;;;;4.75;nan;102664.78;4991584;28;20026;-42
2023/04/18 03:19:46;;;;;;;12.02;10.15;;;;;;;4.87;nan;102685.91;4990245;28;20077;-44
2023/04/18 03:22:12;;;;;;;12.70;9.10;;;;;;;4.46;nan;102612.03;4970965;28;20081;-42
2023/04/18 03:24:38;;;;;;;14.18;10.20;;;;;;;4.88;nan;102685.94;4973099;28;20463;-41
2023/04/18 03:27:03;;;;;;;10.90;9.48;;;;;;;4.89;nan;102699.84;4972330;28;20130;-42
2023/04/18 03:29:28;;;;;;;11.93;9.65;;;;;;;4.82;nan;102679.69;4971019;28;20505;-41
2023/04/18 03:31:54;;;;;;;12.85;10.13;;;;;;;4.81;nan;102668.41;4970841;28;20074;-40
2023/04/18 03:34:19;;;;;;;12.55;10.27;;;;;;;4.95;nan;102687.81;4972979;28;20059;-42
2023/04/18 03:36:45;;;;;;;12.15;10.07;;;;;;;5.04;nan;102687.13;4973081;28;20126;-40
2023/04/18 03:39:10;;;;;;;12.45;9.90;;;;;;;5.20;nan;102697.00;4972333;28;20065;-41
2023/04/18 03:41:35;;;;;;;10.52;9.25;;;;;;;5.33;nan;102695.50;4971960;28;20282;-41
2023/04/18 03:44:00;;;;;;;11.15;9.75;;;;;;;5.40;nan;102698.25;4955389;28;20035;-42
2023/04/18 03:46:26;;;;;;;13.30;10.40;;;;;;;5.06;nan;102620.16;4972189;28;20058;-40
2023/04/18 03:48:51;;;;;;;13.98;9.50;;;;;;;5.53;nan;102697.63;4971009;28;20043;-42
2023/04/18 03:51:16;;;;;;;11.50;9.15;;;;;;;5.57;nan;102702.03;4972974;28;20031;-41
2023/04/18 03:53:42;;;;;;;12.60;9.70;;;;;;;5.60;nan;102706.47;4972725;28;20234;-42
2023/04/18 03:56:07;;;;;;;11.30;9.65;;;;;;;5.62;nan;102689.94;4971946;28;20113;-42
2023/04/18 03:58:32;;;;;;;13.90;10.05;;;;;;;5.63;nan;102702.13;4955314;28;20067;-41
2023/04/18 04:00:59;;;;;;;11.73;9.57;;;;;;;5.56;nan;102691.56;4956283;28;20054;-41
2023/04/18 04:03:26;;;;;;;12.40;9.98;;;;;;;5.58;nan;102706.41;4975050;28;20456;-41
2023/04/18 04:05:52;;;;;;;12.75;9.20;;;;;;;5.68;nan;102707.47;4957122;29;20452;-40
2023/04/18 04:08:17;;;;;;;13.07;9.88;;;;;;;5.22;nan;102626.56;4957075;29;20042;-41
2023/04/18 04:10:43;;;;;;;12.40;9.30;;;;;;;5.26;nan;102633.56;4973240;28;20047;-40
2023/04/18 04:13:08;;;;;;;12.82;10.48;;;;;;;5.71;nan;102699.69;4976475;28;20049;-40
2023/04/18 04:15:36;;;;;;;11.82;10.48;;;;;;;5.79;nan;102703.28;4975376;28;20114;-40
2023/04/18 04:18:01;;;;;;;14.75;9.50;;;;;;;5.89;nan;102709.59;4974394;28;20042;-40
2023/04/18 04:20:26;;;;;;;11.77;9.43;;;;;;;5.94;nan;102710.53;4984424;28;20058;-40
2023/04/18 04:22:52;;;;;;;14.88;10.23;;;;;;;6.03;nan;102716.81;4995550;28;20560;-39
2023/04/18 04:25:18;;;;;;;11.30;10.10;;;;;;;6.01;nan;102696.72;4995218;28;20104;-40
2023/04/18 04:27:43;;;;;;;12.02;10.25;;;;;;;6.13;nan;102704.72;4994370;28;20143;-42
2023/04/18 04:30:09;;;;;;;14.32;10.55;;;;;;;6.17;nan;102717.91;4992474;28;20110;-40
2023/04/18 04:32:35;;;;;;;10.95;9.75;;;;;;;6.09;nan;102692.50;4985343;28;20429;-40
2023/04/18 04:35:00;;;;;;;14.30;10.90;;;;;;;6.16;nan;102692.59;4983245;28;20085;-41
2023/04/18 04:37:26;;;;;;;12.15;10.27;;;;;;;5.82;nan;102634.50;4994437;28;20172;-41
2023/04/18 04:39:51;;;;;;;13.10;9.73;;;;;;;6.25;nan;102711.91;4996788;28;20130;-41
2023/04/18 04:42:18;;;;;;;11.00;9.52;;;;;;;6.27;nan;102720.66;5008758;28;20125;-40
2023/04/18 04:44:43;;;;;;;14.98;10.48;;;;;;;5.93;nan;102652.16;4994802;28;20038;-40
2023/04/18 04:47:09;;;;;;;12.77;10.20;;;;;;;6.28;nan;102714.53;4993183;28;20068;-42
2023/04/18 04:49:34;;;;;;;13.68;11.57;;;;;;;6.03;nan;102684.56;4993745;28;20050;-40
2023/04/18 04:52:01;;;;;;;12.73;9.90;;;;;;;6.16;nan;102725.69;4992409;28;20104;-41
2023/04/18 04:54:26;;;;;;;11.48;9.82;;;;;;;5.63;nan;102652.50;4993191;28;20042;-41
2023/04/18 04:56:52;;;;;;;12.48;10.63;;;;;;;5.97;nan;102727.16;4994866;28;20165;-40
2023/04/18 04:59:17;;;;;;;15.25;11.70;;;;;;;5.89;nan;102722.66;4993135;28;20150;-41
2023/04/18 05:01:43;;;;;;;12.95;9.98;;;;;;;5.79;nan;102724.19;4991036;28;20409;-41
2023/04/18 05:04:08;;;;;;;12.43;10.57;;;;;;;5.75;nan;102724.13;4992151;28;20512;-48
2023/04/18 05:06:33;;;;;;;11.32;10.23;;;;;;;5.67;nan;102727.47;4994018;28;20481;-41
2023/04/18 05:08:59;;;;;;;13.15;10.45;;;;;;;5.60;nan;102725.59;4992443;28;20042;-41
2023/04/18 05:11:25;;;;;;;14.52;9.70;;;;;;;5.62;nan;102723.91;4993506;28;20128;-40
2023/04/18 05:13:51;;;;;;;13.48;11.60;;;;;;;5.69;nan;102730.13;4992985;28;20434;-42
2023/04/18 05:16:16;;;;;;;14.77;11.18;;;;;;;5.75;nan;102727.59;4993254;28;20046;-42
2023/04/18 05:18:42;;;;;;;16.38;11.35;;;;;;;5.76;nan;102718.91;5006296;28;20057;-40
2023/04/18 05:21:07;;;;;;;14.05;11.43;;;;;;;5.89;nan;102736.63;4992389;28;20084;-40
2023/04/18 05:23:36;;;;;;;14.20;11.32;;;;;;;5.44;nan;102644.34;5008862;28;20120;-41
2023/04/18 05:26:02;;;;;;;15.40;11.60;;;;;;;5.94;nan;102723.59;4993880;28;20450;-40
2023/04/18 05:28:28;;;;;;;15.00;11.63;;;;;;;5.63;nan;102660.34;4992210;28;20097;-40
2023/04/18 05:30:59;;;;;;;12.80;10.85;;;;;;;6.03;nan;102729.88;4992033;28;20034;-41
2023/04/18 05:33:31;;;;;;;15.77;11.27;;;;;;;6.06;nan;102732.53;4977506;28;20057;-41
2023/04/18 05:35:57;;;;;;;12.75;10.57;;;;;;;6.14;nan;102733.53;4992693;28;20039;-40
2023/04/18 05:38:24;;;;;;;19.33;12.45;;;;;;;6.15;nan;102721.34;4993414;28;20041;-41
2023/04/18 05:40:50;;;;;;;12.82;10.90;;;;;;;5.86;nan;102667.72;4990854;28;20638;-41
2023/04/18 05:43:18;;;;;;;14.73;12.27;;;;;;;5.78;nan;102669.31;4986531;28;20044;-39
2023/04/18 05:45:43;;;;;;;13.27;11.80;;;;;;;6.18;nan;102709.22;4974454;28;20035;-40
2023/04/18 05:48:08;;;;;;;15.00;11.73;;;;;;;6.31;nan;102727.66;4986166;28;20057;-40
2023/04/18 05:50:34;;;;;;;14.77;11.30;;;;;;;5.92;nan;102667.81;4984081;28;20042;-40
2023/04/18 05:53:00;;;;;;;14.65;11.95;;;;;;;6.17;nan;102698.69;4993066;28;20478;-40
2023/04/18 05:55:25;;;;;;;14.70;12.05;;;;;;;6.41;nan;102746.16;4999055;28;20450;-41
2023/04/18 05:57:50;;;;;;;13.10;11.63;;;;;;;5.99;nan;102656.59;4993884;28;20030;-41
2023/04/18 06:00:16;;;;;;;13.75;11.25;;;;;;;6.45;nan;102744.47;4991332;28;20034;-41
2023/04/18 06:02:41;;;;;;;14.27;12.05;;;;;;;6.13;nan;102669.00;4992487;28;20434;-41
2023/04/18 06:05:07;;;;;;;15.52;12.40;;;;;;;6.67;nan;102746.53;4991867;28;20038;-42
2023/04/18 06:07:33;;;;;;;16.20;11.85;;;;;;;6.74;nan;102746.63;4992274;28;20096;-39
2023/04/18 06:09:58;;;;;;;14.35;10.57;;;;;;;6.45;nan;102684.31;4991530;28;20042;-40
2023/04/18 06:12:24;;;;;;;13.85;11.98;;;;;;;5.67;nan;102554.16;4991895;28;20500;-39
2023/04/18 06:14:49;;;;;;;12.90;11.60;;;;;;;6.73;nan;102742.25;4991748;28;20486;-40
2023/04/18 06:17:15;;;;;;;15.25;11.77;;;;;;;6.81;nan;102750.19;4993498;28;20497;-40
2023/04/18 06:19:40;;;;;;;15.15;12.82;;;;;;;6.78;nan;102743.19;4992688;28;20125;-39
2023/04/18 06:22:06;;;;;;;16.30;12.52;;;;;;;6.85;nan;102759.88;4990261;28;20383;-38
2023/04/18 06:24:31;;;;;;;15.68;11.60;;;;;;;6.80;nan;102748.44;4991613;28;20049;-39
2023/04/18 06:26:56;;;;;;;15.23;12.07;;;;;;;6.75;nan;102758.84;4993375;28;20401;-39
2023/04/18 06:29:22;;;;;;;14.52;12.18;;;;;;;6.75;nan;102760.59;4992202;28;20466;-39
2023/04/18 06:31:49;;;;;;;14.55;11.70;;;;;;;6.44;nan;102704.34;4992301;28;20116;-39
2023/04/18 06:34:15;;;;;;;12.93;11.50;;;;;;;6.72;nan;102757.94;4974585;28;20037;-39
2023/04/18 06:36:40;;;;;;;16.73;12.05;;;;;;;6.78;nan;102760.63;4992195;28;20084;-39
2023/04/18 06:39:06;;;;;;;13.45;11.85;;;;;;;6.59;nan;102707.19;4977271;28;20035;-38
2023/04/18 06:41:31;;;;;;;11.90;10.68;;;;;;;6.92;nan;102759.06;4990373;28;20387;-39
2023/04/18 06:43:56;;;;;;;15.20;12.27;;;;;;;6.96;nan;102765.22;4974584;28;20034;-40
2023/04/18 06:46:22;;;;;;;12.68;11.00;;;;;;;7.09;nan;102762.78;4992863;28;20038;-38
2023/04/18 06:48:47;;;;;;;14.95;11.80;;;;;;;7.16;nan;102753.25;4992253;28;20077;-38
2023/04/18 06:51:13;;;;;;;13.45;11.93;;;;;;;7.07;nan;102746.19;4991982;28;20081;-40
2023/04/18 06:53:38;;;;;;;15.25;12.60;;;;;;;6.04;nan;102558.22;4990601;28;20054;-40
2023/04/18 06:56:04;;;;;;;13.45;11.20;;;;;;;7.13;nan;102716.56;4991230;28;20037;-38
2023/04/18 06:58:29;;;;;;;12.35;11.15;;;;;;;7.16;nan;102732.31;4990206;28;20038;-38
2023/04/18 07:00:54;;;;;;;15.18;11.68;;;;;;;7.36;nan;102736.91;4990709;28;20038;-39
2023/04/18 07:03:20;;;;;;;12.57;11.07;;;;;;;7.71;nan;102747.75;4991924;28;20125;-40
2023/04/18 07:05:45;;;;;;;12.57;10.82;;;;;;;7.75;nan;102760.03;4973351;28;20042;-39
2023/04/18 07:08:11;;;;;;;11.90;10.70;;;;;;;7.87;nan;102756.66;4974550;28;20038;-41
2023/04/18 07:10:36;;;;;;;14.38;10.75;;;;;;;7.86;nan;102754.88;4984519;28;20035;-40
2023/04/18 07:13:02;;;;;;;16.70;11.38;;;;;;;7.91;nan;102737.44;4976022;28;20077;-40
2023/04/18 07:15:27;;;;;;;12.05;10.63;;;;;;;8.01;nan;102757.66;4990149;28;20039;-40
2023/04/18 07:17:52;;;;;;;13.55;10.93;;;;;;;7.57;nan;102701.31;4991593;28;20581;-39
2023/04/18 07:20:18;;;;;;;16.48;11.77;;;;;;;7.83;nan;102749.63;4991609;28;20173;-39
2023/04/18 07:22:43;;;;;;;12.82;11.50;;;;;;;7.81;nan;102759.22;4992017;28;20397;-39
2023/04/18 07:25:08;;;;;;;16.13;12.13;;;;;;;7.65;nan;102717.97;4992258;28;20113;-39
2023/04/18 07:27:35;;;;;;;12.32;10.98;;;;;;;7.88;nan;102759.28;4992720;28;20115;-40
2023/04/18 07:30:01;;;;;;;14.63;10.95;;;;;;;7.94;nan;102766.31;4989966;28;20022;-39
2023/04/18 07:32:26;;;;;;;14.18;11.10;;;;;;;7.77;nan;102745.19;4991572;28;20049;-39
2023/04/18 07:34:52;;;;;;;12.52;11.18;;;;;;;7.99;nan;102762.00;4992888;28;20438;-40
2023/04/18 07:37:20;;;;;;;12.98;11.65;;;;;;;7.87;nan;102761.91;4996008;28;20121;-40
2023/04/18 07:39:46;;;;;;;13.18;11.10;;;;;;;7.76;nan;102753.06;4995522;28;20481;-39
2023/04/18 07:42:11;;;;;;;14.57;11.00;;;;;;;7.90;nan;102759.31;4979012;28;20022;-39
2023/04/18 07:44:37;;;;;;;13.20;11.48;;;;;;;8.09;nan;102768.19;4996374;28;20093;-40
2023/04/18 07:47:02;;;;;;;13.07;10.65;;;;;;;8.29;nan;102766.66;4996446;28;20057;-39
2023/04/18 07:49:28;;;;;;;12.40;11.13;;;;;;;8.05;nan;102699.13;4994457;28;20039;-39
2023/04/18 07:51:53;;;;;;;12.02;10.15;;;;;;;8.67;nan;102775.66;4996426;28;20584;-40
2023/04/18 07:54:18;;;;;;;12.88;10.45;;;;;;;9.03;nan;102753.97;4995407;28;20406;-39
2023/04/18 07:56:44;;;;;;;12.57;11.00;;;;;;;8.88;nan;102685.63;4995274;28;20503;-39
2023/04/18 07:59:10;;;;;;;11.48;10.05;;;;;;;9.51;nan;102761.16;4994746;28;20054;-39
2023/04/18 08:01:35;;;;;;;10.82;9.68;;;;;;;9.26;nan;102731.28;4960969;28;20125;-39
2023/04/18 08:04:00;;;;;;;11.55;10.30;;;;;;;9.52;nan;102782.19;4976859;28;20326;-39
2023/04/18 08:06:27;;;;;;;11.82;9.10;;;;;;;9.50;nan;102757.66;4984423;28;20038;-39
2023/04/18 08:08:52;;;;;;;10.68;9.13;;;;;;;9.69;nan;102776.09;4992890;28;20081;-40
2023/04/18 08:11:17;;;;;;;11.75;9.50;;;;;;;9.15;nan;102713.72;4995049;28;20121;-40
2023/04/18 08:13:43;;;;;;;10.07;8.90;;;;;;;9.30;nan;102767.22;4995394;28;20108;-40
2023/04/18 08:16:08;;;;;;;10.57;9.55;;;;;;;9.22;nan;102775.97;4995129;28;20094;-39
2023/04/18 08:18:34;;;;;;;10.30;8.80;;;;;;;8.72;nan;102712.69;4995106;28;20045;-39
2023/04/18 08:20:59;;;;;;;11.98;9.68;;;;;;;9.07;nan;102755.75;4995106;28;20050;-39
2023/04/18 08:23:25;;;;;;;9.90;8.90;;;;;;;9.18;nan;102761.03;4995902;28;20397;-40
2023/04/18 08:25:50;;;;;;;11.27;8.65;;;;;;;9.13;nan;102765.41;4995857;28;20496;-40
2023/04/18 08:28:16;;;;;;;10.27;8.23;;;;;;;9.21;nan;102756.69;4995336;28;20042;-39
2023/04/18 08:30:42;;;;;;;10.23;9.10;;;;;;;9.38;nan;102760.25;4995664;28;20035;-39
2023/04/18 08:33:08;;;;;;;8.73;7.82;;;;;;;9.64;nan;102765.56;4995226;28;20465;-39
2023/04/18 08:35:34;;;;;;;9.05;7.93;;;;;;;9.63;nan;102770.81;4978179;28;20065;-40
2023/04/18 08:38:00;;;;;;;10.32;8.90;;;;;;;9.67;nan;102736.63;4994496;28;20040;-41
2023/04/18 08:40:25;;;;;;;9.23;8.27;;;;;;;10.06;nan;102757.72;4995663;28;20042;-41
2023/04/18 08:42:51;;;;;;;9.00;8.10;;;;;;;10.07;nan;102775.25;4995271;28;20668;-39
2023/04/18 08:45:18;;;;;;;9.48;7.70;;;;;;;9.79;nan;102712.09;4978000;28;20100;-39
2023/04/18 08:47:44;;;;;;;11.68;9.40;;;;;;;9.92;nan;102645.47;4994298;28;20121;-39
2023/04/18 08:50:10;;;;;;;8.45;7.65;;;;;;;10.84;nan;102700.56;4995452;28;20121;-40
2023/04/18 08:52:36;;;;;;;8.55;7.65;;;;;;;11.46;nan;102749.44;4991626;28;20037;-40
2023/04/18 08:55:02;;;;;;;9.10;8.20;;;;;;;10.94;nan;102672.41;4976825;28;20117;-39
2023/04/18 08:57:29;;;;;;;8.65;7.10;;;;;;;11.62;nan;102759.88;4977855;28;20466;-40
2023/04/18 08:59:55;;;;;;;7.47;6.70;;;;;;;11.75;nan;102776.56;4995098;28;20125;-40
2023/04/18 09:02:22;;;;;;;7.65;6.95;;;;;;;11.96;nan;102772.91;4977495;28;20042;-39
2023/04/18 09:04:51;;;;;;;7.60;6.90;;;;;;;11.90;nan;102715.75;4995084;28;20121;-41
2023/04/18 09:07:18;;;;;;;8.20;6.70;;;;;;;13.02;nan;102771.88;4994864;28;20493;-40
2023/04/18 09:09:51;;;;;;;7.60;6.80;;;;;;;12.87;nan;102757.91;4993380;28;20040;-41
2023/04/18 09:12:21;;;;;;;6.85;6.18;;;;;;;13.21;nan;102753.16;4994375;28;20081;-41
2023/04/18 09:14:50;;;;;;;10.07;7.22;;;;;;;12.87;nan;102709.50;4977674;28;20026;-40
2023/04/18 09:17:37;;;;;;;7.90;7.10;;;;;;;12.73;nan;102759.84;4977558;28;20058;-39
2023/04/18 09:20:08;;;;;;;8.40;7.35;;;;;;;12.49;nan;102754.84;4976990;28;20049;-41
2023/04/18 09:22:50;;;;;;;9.13;7.10;;;;;;;12.80;nan;102708.69;4975306;28;20039;-41
2023/04/18 09:25:36;;;;;;;8.50;7.60;;;;;;;13.23;nan;102772.50;4975461;28;20433;-40
2023/04/18 09:28:03;;;;;;;8.98;7.13;;;;;;;13.84;nan;102753.97;4974476;28;20043;-40
2023/04/18 09:30:38;;;;;;;7.93;7.10;;;;;;;14.56;nan;102757.19;4974065;28;20154;-41
2023/04/18 09:33:06;;;;;;;7.40;6.40;;;;;;;15.47;nan;102768.59;4957633;28;20129;-40
2023/04/18 09:35:32;;;;;;;7.65;6.95;;;;;;;14.87;nan;102716.84;4975018;28;20035;-41
2023/04/18 09:37:57;;;;;;;7.25;6.55;;;;;;;15.52;nan;102779.13;4957656;28;20097;-40
2023/04/18 09:40:22;;;;;;;7.32;6.45;;;;;;;15.08;nan;102721.69;4974987;28;20041;-40
2023/04/18 09:42:51;;;;;;;7.82;6.97;;;;;;;15.85;nan;102772.19;4957775;28;20039;-40
2023/04/18 09:45:16;;;;;;;6.90;6.20;;;;;;;15.77;nan;102751.09;4956040;28;20031;-41
2023/04/18 09:47:41;;;;;;;6.68;6.07;;;;;;;15.88;nan;102735.78;4957394;28;20033;-40
2023/04/18 09:50:08;;;;;;;7.18;6.45;;;;;;;15.92;nan;102705.59;4974587;28;20035;-40
2023/04/18 09:52:35;;;;;;;7.50;6.80;;;;;;;14.52;nan;102722.81;4941786;28;20128;-39
2023/04/18 09:55:12;;;;;;;8.27;6.57;;;;;;;14.59;nan;102759.78;4973809;28;20035;-40
2023/04/18 09:57:41;;;;;;;7.57;6.88;;;;;;;14.09;nan;102773.00;4957132;28;20094;-39
2023/04/18 10:00:12;;;;;;;7.63;6.57;;;;;;;13.42;nan;102763.44;4974015;28;20038;-39
2023/04/18 10:02:49;;;;;;;6.97;6.30;;;;;;;12.88;nan;102696.25;4973702;28;20042;-40
2023/04/18 10:05:15;;;;;;;7.15;6.47;;;;;;;13.37;nan;102752.03;4974809;28;20042;-41
2023/04/18 10:07:44;;;;;;;6.65;5.95;;;;;;;14.48;nan;102734.38;4957231;28;20030;-40
2023/04/18 10:10:09;;;;;;;8.85;6.60;;;;;;;14.87;nan;102762.78;4974680;28;20026;-42
2023/04/18 10:12:35;;;;;;;7.13;6.43;;;;;;;13.65;nan;102699.59;4974331;28;20034;-46
2023/04/18 10:15:05;;;;;;;8.25;7.45;;;;;;;13.47;nan;102758.06;4974281;28;20062;-40
2023/04/18 10:17:54;;;;;;;7.20;6.50;;;;;;;13.36;nan;102693.88;4972662;28;20097;-38
2023/04/18 10:20:22;;;;;;;10.02;7.57;;;;;;;13.67;nan;102695.16;4974455;28;20030;-40
2023/04/18 10:22:48;;;;;;;7.10;6.47;;;;;;;13.53;nan;102689.19;4993627;28;20038;-45
2023/04/18 10:25:33;;;;;;;7.68;6.97;;;;;;;13.36;nan;102757.34;4993542;28;20038;-44
2023/04/18 10:28:00;;;;;;;8.25;6.45;;;;;;;13.12;nan;102744.44;4992310;28;20566;-40
2023/04/18 10:30:41;;;;;;;10.60;7.03;;;;;;;12.50;nan;102753.03;4976116;28;20569;-40
2023/04/18 10:33:51;;;;;;;10.98;6.88;;;;;;;12.30;nan;102740.03;4993479;28;20357;-41
2023/04/18 10:36:19;;;;;;;6.45;5.85;;;;;;;12.24;nan;102719.84;4984482;28;20049;-40
2023/04/18 10:38:52;;;;;;;7.50;6.70;;;;;;;12.18;nan;102690.88;4976476;28;20042;-40
2023/04/18 10:41:18;;;;;;;7.72;6.85;;;;;;;12.30;nan;102729.47;4993338;28;20199;-40
2023/04/18 10:44:05;;;;;;;8.90;6.82;;;;;;;12.26;nan;102718.06;4992133;28;20030;-42
2023/04/18 10:46:49;;;;;;;8.45;7.50;;;;;;;12.08;nan;102730.56;4992826;28;20502;-40
2023/04/18 10:49:15;;;;;;;8.85;6.97;;;;;;;12.18;nan;102717.25;4993045;28;20042;-42
2023/04/18 10:51:41;;;;;;;8.50;7.57;;;;;;;12.43;nan;102706.47;4992970;28;20034;-39
2023/04/18 10:54:09;;;;;;;7.07;6.38;;;;;;;12.60;nan;102725.66;4993020;28;20089;-40
2023/04/18 10:56:35;;;;;;;6.82;6.10;;;;;;;11.96;nan;102636.53;4975311;28;20035;-40
2023/04/18 10:59:01;;;;;;;7.50;6.57;;;;;;;12.04;nan;102692.75;4993110;28;20041;-41
2023/04/18 11:01:29;;;;;;;7.30;6.25;;;;;;;11.94;nan;102648.84;4992148;28;20474;-42
2023/04/18 11:03:55;;;;;;;8.93;6.85;;;;;;;12.21;nan;102684.69;4959426;28;20359;-40
2023/04/18 11:06:21;;;;;;;6.68;6.10;;;;;;;12.46;nan;102711.72;4974718;28;20121;-41
2023/04/18 11:08:48;;;;;;;7.78;6.47;;;;;;;12.44;nan;102690.59;4975346;28;20528;-40
2023/04/18 11:11:14;;;;;;;7.97;7.25;;;;;;;12.35;nan;102710.06;4959077;28;20042;-39
2023/04/18 11:13:58;;;;;;;7.70;6.97;;;;;;;12.12;nan;102646.03;4992317;28;20046;-41
2023/04/18 11:16:28;;;;;;;6.80;6.18;;;;;;;12.58;nan;102712.44;4959581;28;20463;-46
2023/04/18 11:18:54;;;;;;;7.18;6.35;;;;;;;12.82;nan;102691.03;4992868;28;20456;-40
2023/04/18 11:21:19;;;;;;;7.57;6.43;;;;;;;13.20;nan;102708.19;4992052;28;20069;-42
2023/04/18 11:23:46;;;;;;;7.32;6.15;;;;;;;13.09;nan;102695.13;4992684;28;20478;-40
2023/04/18 11:26:16;;;;;;;7.35;6.55;;;;;;;12.72;nan;102651.53;4992561;28;20407;-42
2023/04/18 11:28:41;;;;;;;7.03;6.32;;;;;;;12.85;nan;102716.53;4992674;28;20039;-43
2023/04/18 11:31:07;;;;;;;6.90;6.30;;;;;;;12.41;nan;102704.72;4975234;28;20038;-44
2023/04/18 11:33:32;;;;;;;9.60;6.32;;;;;;;12.15;nan;102651.28;4975412;28;20181;-46